sensor_id;sensor_type;location;lat;lon;timestamp;P1;durP1;ratioP1;P2;durP2;ratioP2
29958;SDS011;16815;51.100;6.516;2024-03-23T00:53:02;13.90;;;5.37;;
29958;SDS011;16815;51.100;6.516;2024-03-23T00:55:28;9.47;;;4.87;;
29958;SDS011;16815;51.100;6.516;2024-03-23T00:57:54;9.10;;;5.60;;
29958;SDS011;16815;51.100;6.516;2024-03-23T01:00:20;10.87;;;4.90;;
29958;SDS011;16815;51.100;6.516;2024-03-23T01:02:46;9.23;;;4.07;;
29958;SDS011;16815;51.100;6.516;2024-03-23T01:05:12;7.03;;;3.60;;
29958;SDS011;16815;51.100;6.516;2024-03-23T01:07:38;8.07;;;4.00;;
29958;SDS011;16815;51.100;6.516;2024-03-23T01:10:04;7.07;;;3.43;;
29958;SDS011;16815;51.100;6.516;2024-03-23T01:12:30;7.57;;;3.47;;
29958;SDS011;16815;51.100;6.516;2024-03-23T01:14:56;10.03;;;3.87;;
29958;SDS011;16815;51.100;6.516;2024-03-23T01:17:22;8.47;;;3.87;;
29958;SDS011;16815;51.100;6.516;2024-03-23T01:19:48;9.00;;;4.20;;
29958;SDS011;16815;51.100;6.516;2024-03-23T01:22:14;8.07;;;3.73;;
29958;SDS011;16815;51.100;6.516;2024-03-23T01:24:40;15.13;;;4.10;;
29958;SDS011;16815;51.100;6.516;2024-03-23T01:27:06;9.50;;;3.17;;
29958;SDS011;16815;51.100;6.516;2024-03-23T01:29:32;10.17;;;3.37;;
29958;SDS011;16815;51.100;6.516;2024-03-23T01:31:58;6.70;;;2.90;;
29958;SDS011;16815;51.100;6.516;2024-03-23T01:34:24;14.87;;;3.33;;
29958;SDS011;16815;51.100;6.516;2024-03-23T01:36:50;11.63;;;3.10;;
29958;SDS011;16815;51.100;6.516;2024-03-23T01:39:16;8.97;;;3.27;;
29958;SDS011;16815;51.100;6.516;2024-03-23T01:41:42;8.50;;;3.20;;
29958;SDS011;16815;51.100;6.516;2024-03-23T01:44:08;9.33;;;3.33;;
29958;SDS011;16815;51.100;6.516;2024-03-23T01:46:37;8.47;;;2.80;;
29958;SDS011;16815;51.100;6.516;2024-03-23T01:49:06;8.63;;;2.83;;
29958;SDS011;16815;51.100;6.516;2024-03-23T01:51:32;6.77;;;3.03;;
29958;SDS011;16815;51.100;6.516;2024-03-23T01:54:00;10.00;;;3.03;;
29958;SDS011;16815;51.100;6.516;2024-03-23T01:56:28;5.50;;;2.23;;
29958;SDS011;16815;51.100;6.516;2024-03-23T01:58:55;6.13;;;2.90;;
29958;SDS011;16815;51.100;6.516;2024-03-23T02:01:21;10.77;;;3.00;;
29958;SDS011;16815;51.100;6.516;2024-03-23T02:03:47;8.30;;;2.90;;
29958;SDS011;16815;51.100;6.516;2024-03-23T02:06:13;6.80;;;2.60;;
29958;SDS011;16815;51.100;6.516;2024-03-23T02:08:39;8.33;;;2.93;;
29958;SDS011;16815;51.100;6.516;2024-03-23T02:11:05;8.57;;;2.77;;
29958;SDS011;16815;51.100;6.516;2024-03-23T02:13:31;7.60;;;2.40;;
29958;SDS011;16815;51.100;6.516;2024-03-23T02:15:57;5.67;;;2.80;;
29958;SDS011;16815;51.100;6.516;2024-03-23T02:18:23;6.40;;;2.90;;
29958;SDS011;16815;51.100;6.516;2024-03-23T02:20:49;4.23;;;2.60;;
29958;SDS011;16815;51.100;6.516;2024-03-23T02:23:15;5.40;;;2.47;;
29958;SDS011;16815;51.100;6.516;2024-03-23T02:25:42;6.13;;;2.47;;
29958;SDS011;16815;51.100;6.516;2024-03-23T02:28:09;3.97;;;2.30;;
29958;SDS011;16815;51.100;6.516;2024-03-23T02:30:35;6.17;;;2.50;;
29958;SDS011;16815;51.100;6.516;2024-03-23T02:33:01;6.93;;;2.20;;
29958;SDS011;16815;51.100;6.516;2024-03-23T02:35:27;4.17;;;2.10;;
29958;SDS011;16815;51.100;6.516;2024-03-23T02:37:53;5.90;;;3.10;;
29958;SDS011;16815;51.100;6.516;2024-03-23T02:40:21;6.73;;;2.63;;
29958;SDS011;16815;51.100;6.516;2024-03-23T02:42:47;9.00;;;2.90;;
29958;SDS011;16815;51.100;6.516;2024-03-23T02:45:12;7.50;;;3.17;;
29958;SDS011;16815;51.100;6.516;2024-03-23T02:47:38;7.27;;;2.63;;
29958;SDS011;16815;51.100;6.516;2024-03-23T02:50:05;6.80;;;2.87;;
29958;SDS011;16815;51.100;6.516;2024-03-23T02:52:31;6.83;;;2.73;;
29958;SDS011;16815;51.100;6.516;2024-03-23T02:54:57;6.67;;;3.03;;
29958;SDS011;16815;51.100;6.516;2024-03-23T02:57:23;6.50;;;3.07;;
29958;SDS011;16815;51.100;6.516;2024-03-23T02:59:49;6.50;;;2.40;;
29958;SDS011;16815;51.100;6.516;2024-03-23T03:02:15;7.83;;;2.80;;
29958;SDS011;16815;51.100;6.516;2024-03-23T03:04:41;7.13;;;2.37;;
29958;SDS011;16815;51.100;6.516;2024-03-23T03:07:07;10.03;;;3.23;;
29958;SDS011;16815;51.100;6.516;2024-03-23T03:09:33;7.50;;;3.03;;
29958;SDS011;16815;51.100;6.516;2024-03-23T03:12:00;10.77;;;3.10;;
29958;SDS011;16815;51.100;6.516;2024-03-23T03:14:26;6.80;;;2.57;;
29958;SDS011;16815;51.100;6.516;2024-03-23T03:16:53;5.30;;;2.30;;
29958;SDS011;16815;51.100;6.516;2024-03-23T03:19:19;8.00;;;3.20;;
29958;SDS011;16815;51.100;6.516;2024-03-23T03:21:45;10.33;;;2.83;;
29958;SDS011;16815;51.100;6.516;2024-03-23T03:24:12;6.77;;;3.03;;
29958;SDS011;16815;51.100;6.516;2024-03-23T03:26:38;4.37;;;2.30;;
29958;SDS011;16815;51.100;6.516;2024-03-23T03:29:04;5.90;;;2.60;;
29958;SDS011;16815;51.100;6.516;2024-03-23T03:31:30;8.67;;;2.70;;
29958;SDS011;16815;51.100;6.516;2024-03-23T03:33:56;7.57;;;2.73;;
29958;SDS011;16815;51.100;6.516;2024-03-23T03:36:22;10.40;;;2.80;;
29958;SDS011;16815;51.100;6.516;2024-03-23T03:38:48;8.63;;;2.90;;
29958;SDS011;16815;51.100;6.516;2024-03-23T03:41:15;9.90;;;2.50;;
29958;SDS011;16815;51.100;6.516;2024-03-23T03:43:41;7.23;;;3.07;;
29958;SDS011;16815;51.100;6.516;2024-03-23T03:46:07;10.07;;;2.87;;
29958;SDS011;16815;51.100;6.516;2024-03-23T03:48:33;9.07;;;2.60;;
29958;SDS011;16815;51.100;6.516;2024-03-23T03:50:59;6.13;;;2.70;;
29958;SDS011;16815;51.100;6.516;2024-03-23T03:53:25;7.77;;;3.27;;
29958;SDS011;16815;51.100;6.516;2024-03-23T03:55:51;8.90;;;2.70;;
29958;SDS011;16815;51.100;6.516;2024-03-23T03:58:17;8.23;;;2.87;;
29958;SDS011;16815;51.100;6.516;2024-03-23T04:00:43;10.87;;;3.03;;
29958;SDS011;16815;51.100;6.516;2024-03-23T04:03:09;6.80;;;2.93;;
29958;SDS011;16815;51.100;6.516;2024-03-23T04:05:35;7.67;;;2.70;;
29958;SDS011;16815;51.100;6.516;2024-03-23T04:08:01;10.00;;;2.90;;
29958;SDS011;16815;51.100;6.516;2024-03-23T04:10:27;8.83;;;3.23;;
29958;SDS011;16815;51.100;6.516;2024-03-23T04:12:53;8.17;;;3.20;;
29958;SDS011;16815;51.100;6.516;2024-03-23T04:15:19;9.67;;;2.90;;
29958;SDS011;16815;51.100;6.516;2024-03-23T04:17:45;6.93;;;2.60;;
29958;SDS011;16815;51.100;6.516;2024-03-23T04:20:11;10.93;;;2.97;;
29958;SDS011;16815;51.100;6.516;2024-03-23T04:22:41;11.40;;;3.53;;
29958;SDS011;16815;51.100;6.516;2024-03-23T04:25:07;10.03;;;3.23;;
29958;SDS011;16815;51.100;6.516;2024-03-23T04:27:35;7.63;;;2.90;;
29958;SDS011;16815;51.100;6.516;2024-03-23T04:30:01;7.60;;;3.13;;
29958;SDS011;16815;51.100;6.516;2024-03-23T04:32:29;8.40;;;3.40;;
29958;SDS011;16815;51.100;6.516;2024-03-23T04:34:55;10.97;;;3.20;;
29958;SDS011;16815;51.100;6.516;2024-03-23T04:37:21;16.33;;;3.90;;
29958;SDS011;16815;51.100;6.516;2024-03-23T04:39:47;10.27;;;3.80;;
29958;SDS011;16815;51.100;6.516;2024-03-23T04:42:17;11.50;;;3.73;;
29958;SDS011;16815;51.100;6.516;2024-03-23T04:44:43;14.33;;;4.37;;
29958;SDS011;16815;51.100;6.516;2024-03-23T04:47:09;9.10;;;3.73;;
29958;SDS011;16815;51.100;6.516;2024-03-23T04:49:36;8.30;;;3.63;;
29958;SDS011;16815;51.100;6.516;2024-03-23T04:52:05;9.13;;;3.80;;
29958;SDS011;16815;51.100;6.516;2024-03-23T04:54:31;8.37;;;3.50;;
29958;SDS011;16815;51.100;6.516;2024-03-23T04:56:57;10.67;;;4.20;;
29958;SDS011;16815;51.100;6.516;2024-03-23T04:59:23;7.67;;;3.53;;
29958;SDS011;16815;51.100;6.516;2024-03-23T05:01:49;8.37;;;3.60;;
29958;SDS011;16815;51.100;6.516;2024-03-23T05:04:15;10.23;;;3.50;;
29958;SDS011;16815;51.100;6.516;2024-03-23T05:06:41;10.57;;;3.47;;
29958;SDS011;16815;51.100;6.516;2024-03-23T05:09:07;9.63;;;3.20;;
29958;SDS011;16815;51.100;6.516;2024-03-23T05:11:36;11.90;;;3.40;;
29958;SDS011;16815;51.100;6.516;2024-03-23T05:14:02;14.07;;;3.27;;
29958;SDS011;16815;51.100;6.516;2024-03-23T05:16:28;9.20;;;3.47;;
29958;SDS011;16815;51.100;6.516;2024-03-23T05:18:54;15.73;;;3.40;;
29958;SDS011;16815;51.100;6.516;2024-03-23T05:21:20;8.60;;;3.63;;
29958;SDS011;16815;51.100;6.516;2024-03-23T05:23:46;13.33;;;3.90;;
29958;SDS011;16815;51.100;6.516;2024-03-23T05:26:12;6.17;;;3.20;;
29958;SDS011;16815;51.100;6.516;2024-03-23T05:28:38;8.10;;;3.10;;
29958;SDS011;16815;51.100;6.516;2024-03-23T05:31:04;9.57;;;3.50;;
29958;SDS011;16815;51.100;6.516;2024-03-23T05:33:30;10.67;;;3.77;;
29958;SDS011;16815;51.100;6.516;2024-03-23T05:36:02;14.17;;;4.33;;
29958;SDS011;16815;51.100;6.516;2024-03-23T05:38:28;20.27;;;4.87;;
29958;SDS011;16815;51.100;6.516;2024-03-23T05:40:59;8.53;;;3.37;;
29958;SDS011;16815;51.100;6.516;2024-03-23T05:43:25;11.23;;;3.93;;
29958;SDS011;16815;51.100;6.516;2024-03-23T05:45:54;15.17;;;4.30;;
29958;SDS011;16815;51.100;6.516;2024-03-23T05:48:20;10.63;;;4.03;;
29958;SDS011;16815;51.100;6.516;2024-03-23T05:50:47;10.70;;;4.63;;
29958;SDS011;16815;51.100;6.516;2024-03-23T05:53:13;10.73;;;4.07;;
29958;SDS011;16815;51.100;6.516;2024-03-23T05:55:39;9.53;;;3.73;;
29958;SDS011;16815;51.100;6.516;2024-03-23T05:58:05;9.80;;;3.70;;
29958;SDS011;16815;51.100;6.516;2024-03-23T06:00:30;13.43;;;4.50;;
29958;SDS011;16815;51.100;6.516;2024-03-23T06:02:56;12.87;;;4.97;;
29958;SDS011;16815;51.100;6.516;2024-03-23T06:05:22;7.93;;;3.77;;
29958;SDS011;16815;51.100;6.516;2024-03-23T06:07:49;13.40;;;4.20;;
29958;SDS011;16815;51.100;6.516;2024-03-23T06:10:15;12.83;;;4.77;;
29958;SDS011;16815;51.100;6.516;2024-03-23T06:12:41;11.83;;;4.30;;
29958;SDS011;16815;51.100;6.516;2024-03-23T06:15:07;15.17;;;4.90;;
29958;SDS011;16815;51.100;6.516;2024-03-23T06:17:38;9.83;;;4.33;;
29958;SDS011;16815;51.100;6.516;2024-03-23T06:20:04;13.07;;;4.77;;
29958;SDS011;16815;51.100;6.516;2024-03-23T06:22:31;11.03;;;4.43;;
29958;SDS011;16815;51.100;6.516;2024-03-23T06:24:57;12.30;;;4.50;;
29958;SDS011;16815;51.100;6.516;2024-03-23T06:27:23;10.53;;;4.57;;
29958;SDS011;16815;51.100;6.516;2024-03-23T06:29:49;12.67;;;4.70;;
29958;SDS011;16815;51.100;6.516;2024-03-23T06:32:15;14.47;;;4.67;;
29958;SDS011;16815;51.100;6.516;2024-03-23T06:34:41;13.33;;;4.93;;
29958;SDS011;16815;51.100;6.516;2024-03-23T06:37:07;9.10;;;4.97;;
29958;SDS011;16815;51.100;6.516;2024-03-23T06:39:35;12.90;;;4.90;;
29958;SDS011;16815;51.100;6.516;2024-03-23T06:42:00;13.03;;;4.50;;
29958;SDS011;16815;51.100;6.516;2024-03-23T06:44:27;14.23;;;5.50;;
29958;SDS011;16815;51.100;6.516;2024-03-23T06:46:53;17.27;;;5.43;;
29958;SDS011;16815;51.100;6.516;2024-03-23T06:49:19;12.37;;;4.60;;
29958;SDS011;16815;51.100;6.516;2024-03-23T06:51:45;10.33;;;5.33;;
29958;SDS011;16815;51.100;6.516;2024-03-23T06:54:11;11.60;;;4.80;;
29958;SDS011;16815;51.100;6.516;2024-03-23T06:56:37;13.70;;;5.13;;
29958;SDS011;16815;51.100;6.516;2024-03-23T06:59:03;14.37;;;5.73;;
29958;SDS011;16815;51.100;6.516;2024-03-23T07:01:29;15.70;;;6.03;;
29958;SDS011;16815;51.100;6.516;2024-03-23T07:03:55;22.27;;;6.43;;
29958;SDS011;16815;51.100;6.516;2024-03-23T07:06:21;12.17;;;5.80;;
29958;SDS011;16815;51.100;6.516;2024-03-23T07:08:47;11.33;;;5.47;;
29958;SDS011;16815;51.100;6.516;2024-03-23T07:11:19;13.20;;;5.80;;
29958;SDS011;16815;51.100;6.516;2024-03-23T07:13:45;12.23;;;5.90;;
29958;SDS011;16815;51.100;6.516;2024-03-23T07:16:13;13.63;;;6.23;;
29958;SDS011;16815;51.100;6.516;2024-03-23T07:18:39;13.07;;;6.47;;
29958;SDS011;16815;51.100;6.516;2024-03-23T07:21:04;12.37;;;6.00;;
29958;SDS011;16815;51.100;6.516;2024-03-23T07:23:32;13.87;;;7.47;;
29958;SDS011;16815;51.100;6.516;2024-03-23T07:26:02;13.90;;;7.13;;
29958;SDS011;16815;51.100;6.516;2024-03-23T07:28:29;15.73;;;6.93;;
29958;SDS011;16815;51.100;6.516;2024-03-23T07:33:33;14.30;;;6.87;;
29958;SDS011;16815;51.100;6.516;2024-03-23T07:35:59;12.40;;;7.17;;
29958;SDS011;16815;51.100;6.516;2024-03-23T07:38:26;12.63;;;6.37;;
29958;SDS011;16815;51.100;6.516;2024-03-23T07:40:52;10.20;;;5.63;;
29958;SDS011;16815;51.100;6.516;2024-03-23T07:43:21;10.53;;;6.20;;
29958;SDS011;16815;51.100;6.516;2024-03-23T07:45:52;7.07;;;4.90;;
29958;SDS011;16815;51.100;6.516;2024-03-23T07:48:20;12.20;;;5.03;;
29958;SDS011;16815;51.100;6.516;2024-03-23T07:50:59;9.23;;;5.00;;
29958;SDS011;16815;51.100;6.516;2024-03-23T07:53:25;11.80;;;4.90;;
29958;SDS011;16815;51.100;6.516;2024-03-23T07:55:54;11.87;;;4.57;;
29958;SDS011;16815;51.100;6.516;2024-03-23T07:58:20;9.20;;;3.83;;
29958;SDS011;16815;51.100;6.516;2024-03-23T08:00:46;9.70;;;3.90;;
29958;SDS011;16815;51.100;6.516;2024-03-23T08:03:12;13.30;;;4.53;;
29958;SDS011;16815;51.100;6.516;2024-03-23T08:05:38;8.93;;;3.33;;
29958;SDS011;16815;51.100;6.516;2024-03-23T08:08:04;8.73;;;3.60;;
29958;SDS011;16815;51.100;6.516;2024-03-23T08:10:30;6.83;;;3.80;;
29958;SDS011;16815;51.100;6.516;2024-03-23T08:12:56;6.67;;;3.13;;
29958;SDS011;16815;51.100;6.516;2024-03-23T08:15:22;12.30;;;3.40;;
29958;SDS011;16815;51.100;6.516;2024-03-23T08:17:49;7.33;;;3.20;;
29958;SDS011;16815;51.100;6.516;2024-03-23T08:20:15;9.70;;;3.50;;
29958;SDS011;16815;51.100;6.516;2024-03-23T08:22:41;12.23;;;4.10;;
29958;SDS011;16815;51.100;6.516;2024-03-23T08:25:07;12.13;;;3.77;;
29958;SDS011;16815;51.100;6.516;2024-03-23T08:27:33;12.40;;;4.40;;
29958;SDS011;16815;51.100;6.516;2024-03-23T08:29:59;6.83;;;3.50;;
29958;SDS011;16815;51.100;6.516;2024-03-23T08:32:24;8.50;;;3.90;;
29958;SDS011;16815;51.100;6.516;2024-03-23T08:34:50;10.80;;;4.10;;
29958;SDS011;16815;51.100;6.516;2024-03-23T08:37:16;13.07;;;4.60;;
29958;SDS011;16815;51.100;6.516;2024-03-23T08:39:45;11.77;;;4.83;;
29958;SDS011;16815;51.100;6.516;2024-03-23T08:42:11;11.00;;;4.43;;
29958;SDS011;16815;51.100;6.516;2024-03-23T08:44:37;10.77;;;4.90;;
29958;SDS011;16815;51.100;6.516;2024-03-23T08:47:03;11.37;;;4.87;;
29958;SDS011;16815;51.100;6.516;2024-03-23T08:49:29;16.10;;;5.77;;
29958;SDS011;16815;51.100;6.516;2024-03-23T08:51:55;16.27;;;4.90;;
29958;SDS011;16815;51.100;6.516;2024-03-23T08:54:21;8.70;;;4.40;;
29958;SDS011;16815;51.100;6.516;2024-03-23T08:56:48;15.70;;;4.10;;
29958;SDS011;16815;51.100;6.516;2024-03-23T08:59:14;8.23;;;3.77;;
29958;SDS011;16815;51.100;6.516;2024-03-23T09:01:40;9.40;;;4.50;;
29958;SDS011;16815;51.100;6.516;2024-03-23T09:04:06;12.13;;;4.63;;
29958;SDS011;16815;51.100;6.516;2024-03-23T09:06:32;11.40;;;4.93;;
29958;SDS011;16815;51.100;6.516;2024-03-23T09:08:58;12.07;;;4.10;;
29958;SDS011;16815;51.100;6.516;2024-03-23T09:11:24;9.67;;;4.27;;
29958;SDS011;16815;51.100;6.516;2024-03-23T09:13:50;8.77;;;3.33;;
29958;SDS011;16815;51.100;6.516;2024-03-23T09:16:16;9.90;;;3.73;;
29958;SDS011;16815;51.100;6.516;2024-03-23T09:18:42;7.97;;;3.30;;
29958;SDS011;16815;51.100;6.516;2024-03-23T09:21:11;12.00;;;3.77;;
29958;SDS011;16815;51.100;6.516;2024-03-23T09:23:38;9.83;;;3.33;;
29958;SDS011;16815;51.100;6.516;2024-03-23T09:26:04;6.23;;;3.13;;
29958;SDS011;16815;51.100;6.516;2024-03-23T09:28:33;7.67;;;3.20;;
29958;SDS011;16815;51.100;6.516;2024-03-23T09:31:05;9.53;;;3.10;;
29958;SDS011;16815;51.100;6.516;2024-03-23T09:33:32;6.97;;;2.97;;
29958;SDS011;16815;51.100;6.516;2024-03-23T09:35:58;8.53;;;2.77;;
29958;SDS011;16815;51.100;6.516;2024-03-23T09:38:24;7.27;;;2.53;;
29958;SDS011;16815;51.100;6.516;2024-03-23T09:40:50;5.60;;;2.43;;
29958;SDS011;16815;51.100;6.516;2024-03-23T09:43:18;7.47;;;2.60;;
29958;SDS011;16815;51.100;6.516;2024-03-23T09:45:44;6.10;;;2.30;;
29958;SDS011;16815;51.100;6.516;2024-03-23T09:48:10;6.90;;;2.47;;
29958;SDS011;16815;51.100;6.516;2024-03-23T09:50:39;7.10;;;2.93;;
29958;SDS011;16815;51.100;6.516;2024-03-23T09:53:09;6.43;;;2.60;;
29958;SDS011;16815;51.100;6.516;2024-03-23T09:55:36;7.57;;;2.30;;
29958;SDS011;16815;51.100;6.516;2024-03-23T09:58:02;5.33;;;2.33;;
29958;SDS011;16815;51.100;6.516;2024-03-23T10:00:30;9.53;;;2.50;;
29958;SDS011;16815;51.100;6.516;2024-03-23T10:02:56;7.57;;;2.53;;
29958;SDS011;16815;51.100;6.516;2024-03-23T10:05:26;4.47;;;2.57;;
29958;SDS011;16815;51.100;6.516;2024-03-23T10:07:52;7.70;;;3.03;;
29958;SDS011;16815;51.100;6.516;2024-03-23T10:10:18;6.60;;;2.50;;
29958;SDS011;16815;51.100;6.516;2024-03-23T10:12:46;6.03;;;2.40;;
29958;SDS011;16815;51.100;6.516;2024-03-23T10:15:33;8.17;;;2.40;;
29958;SDS011;16815;51.100;6.516;2024-03-23T10:18:01;6.70;;;2.00;;
29958;SDS011;16815;51.100;6.516;2024-03-23T10:20:42;6.90;;;2.30;;
29958;SDS011;16815;51.100;6.516;2024-03-23T10:23:18;5.07;;;2.00;;
29958;SDS011;16815;51.100;6.516;2024-03-23T10:25:44;8.13;;;2.20;;
29958;SDS011;16815;51.100;6.516;2024-03-23T10:28:11;5.50;;;2.13;;
29958;SDS011;16815;51.100;6.516;2024-03-23T10:30:37;9.17;;;2.63;;
29958;SDS011;16815;51.100;6.516;2024-03-23T10:33:06;6.27;;;2.60;;
29958;SDS011;16815;51.100;6.516;2024-03-23T10:35:32;4.73;;;2.10;;
29958;SDS011;16815;51.100;6.516;2024-03-23T10:37:58;4.80;;;2.10;;
29958;SDS011;16815;51.100;6.516;2024-03-23T10:40:24;2.17;;;1.50;;
29958;SDS011;16815;51.100;6.516;2024-03-23T10:42:50;2.83;;;1.20;;
29958;SDS011;16815;51.100;6.516;2024-03-23T10:45:18;1.60;;;1.23;;
29958;SDS011;16815;51.100;6.516;2024-03-23T10:47:44;2.30;;;1.60;;
29958;SDS011;16815;51.100;6.516;2024-03-23T10:50:10;3.77;;;1.37;;
29958;SDS011;16815;51.100;6.516;2024-03-23T10:52:36;2.73;;;1.20;;
29958;SDS011;16815;51.100;6.516;2024-03-23T10:55:02;2.80;;;1.23;;
29958;SDS011;16815;51.100;6.516;2024-03-23T10:58:02;3.00;;;1.33;;
29958;SDS011;16815;51.100;6.516;2024-03-23T11:00:22;5.83;;;1.67;;
29958;SDS011;16815;51.100;6.516;2024-03-23T11:02:48;5.00;;;1.50;;
29958;SDS011;16815;51.100;6.516;2024-03-23T11:07:53;1.53;;;1.30;;
29958;SDS011;16815;51.100;6.516;2024-03-23T11:10:29;3.23;;;1.40;;
29958;SDS011;16815;51.100;6.516;2024-03-23T11:12:56;2.07;;;1.50;;
29958;SDS011;16815;51.100;6.516;2024-03-23T11:15:22;2.77;;;1.63;;
29958;SDS011;16815;51.100;6.516;2024-03-23T11:18:04;3.93;;;1.60;;
29958;SDS011;16815;51.100;6.516;2024-03-23T11:20:34;3.80;;;2.00;;
29958;SDS011;16815;51.100;6.516;2024-03-23T11:23:00;3.93;;;1.70;;
29958;SDS011;16815;51.100;6.516;2024-03-23T11:25:27;3.37;;;1.80;;
29958;SDS011;16815;51.100;6.516;2024-03-23T11:27:54;3.13;;;1.83;;
29958;SDS011;16815;51.100;6.516;2024-03-23T11:30:20;4.83;;;1.90;;
29958;SDS011;16815;51.100;6.516;2024-03-23T11:32:52;3.87;;;2.07;;
29958;SDS011;16815;51.100;6.516;2024-03-23T11:38:09;4.67;;;2.50;;
29958;SDS011;16815;51.100;6.516;2024-03-23T11:40:36;6.00;;;1.77;;
29958;SDS011;16815;51.100;6.516;2024-03-23T11:43:03;6.53;;;2.70;;
29958;SDS011;16815;51.100;6.516;2024-03-23T11:45:36;3.00;;;1.20;;
29958;SDS011;16815;51.100;6.516;2024-03-23T11:50:29;2.73;;;1.13;;
29958;SDS011;16815;51.100;6.516;2024-03-23T11:53:06;2.43;;;1.20;;
29958;SDS011;16815;51.100;6.516;2024-03-23T11:55:38;1.87;;;1.23;;
29958;SDS011;16815;51.100;6.516;2024-03-23T11:58:05;2.13;;;1.13;;
29958;SDS011;16815;51.100;6.516;2024-03-23T12:00:30;2.27;;;1.53;;
29958;SDS011;16815;51.100;6.516;2024-03-23T12:03:06;4.47;;;1.93;;
29958;SDS011;16815;51.100;6.516;2024-03-23T12:05:33;5.13;;;2.33;;
29958;SDS011;16815;51.100;6.516;2024-03-23T12:11:07;1.57;;;1.40;;
29958;SDS011;16815;51.100;6.516;2024-03-23T12:13:34;1.70;;;1.43;;
29958;SDS011;16815;51.100;6.516;2024-03-23T12:16:13;2.90;;;1.40;;
29958;SDS011;16815;51.100;6.516;2024-03-23T12:18:40;3.40;;;1.37;;
29958;SDS011;16815;51.100;6.516;2024-03-23T12:21:06;1.60;;;1.20;;
29958;SDS011;16815;51.100;6.516;2024-03-23T12:23:32;1.30;;;1.20;;
29958;SDS011;16815;51.100;6.516;2024-03-23T12:25:58;2.60;;;1.40;;
29958;SDS011;16815;51.100;6.516;2024-03-23T12:28:24;2.67;;;1.20;;
29958;SDS011;16815;51.100;6.516;2024-03-23T12:30:51;2.30;;;1.20;;
29958;SDS011;16815;51.100;6.516;2024-03-23T12:33:18;1.30;;;1.20;;
29958;SDS011;16815;51.100;6.516;2024-03-23T12:35:44;2.33;;;1.70;;
29958;SDS011;16815;51.100;6.516;2024-03-23T12:38:10;1.90;;;1.40;;
29958;SDS011;16815;51.100;6.516;2024-03-23T12:40:36;1.30;;;1.03;;
29958;SDS011;16815;51.100;6.516;2024-03-23T12:43:02;3.07;;;1.40;;
29958;SDS011;16815;51.100;6.516;2024-03-23T12:45:27;3.80;;;1.30;;
29958;SDS011;16815;51.100;6.516;2024-03-23T12:47:53;3.67;;;1.50;;
29958;SDS011;16815;51.100;6.516;2024-03-23T12:50:20;1.63;;;1.30;;
29958;SDS011;16815;51.100;6.516;2024-03-23T12:52:46;2.63;;;1.50;;
29958;SDS011;16815;51.100;6.516;2024-03-23T12:55:12;2.03;;;1.33;;
29958;SDS011;16815;51.100;6.516;2024-03-23T12:57:38;5.70;;;1.83;;
29958;SDS011;16815;51.100;6.516;2024-03-23T13:00:05;3.00;;;1.63;;
29958;SDS011;16815;51.100;6.516;2024-03-23T13:02:32;2.97;;;1.67;;
29958;SDS011;16815;51.100;6.516;2024-03-23T13:04:59;4.03;;;1.87;;
29958;SDS011;16815;51.100;6.516;2024-03-23T13:07:25;4.73;;;1.90;;
29958;SDS011;16815;51.100;6.516;2024-03-23T13:09:52;3.17;;;1.97;;
29958;SDS011;16815;51.100;6.516;2024-03-23T13:12:18;4.27;;;1.97;;
29958;SDS011;16815;51.100;6.516;2024-03-23T13:14:45;6.00;;;1.83;;
29958;SDS011;16815;51.100;6.516;2024-03-23T13:17:11;6.87;;;2.40;;
29958;SDS011;16815;51.100;6.516;2024-03-23T13:19:37;5.07;;;2.20;;
29958;SDS011;16815;51.100;6.516;2024-03-23T13:22:03;4.00;;;2.17;;
29958;SDS011;16815;51.100;6.516;2024-03-23T13:24:30;5.23;;;2.43;;
29958;SDS011;16815;51.100;6.516;2024-03-23T13:26:56;4.77;;;1.80;;
29958;SDS011;16815;51.100;6.516;2024-03-23T13:29:23;6.47;;;1.93;;
29958;SDS011;16815;51.100;6.516;2024-03-23T13:31:50;5.47;;;2.10;;
29958;SDS011;16815;51.100;6.516;2024-03-23T13:34:16;4.93;;;2.37;;
29958;SDS011;16815;51.100;6.516;2024-03-23T13:36:42;2.80;;;1.87;;
29958;SDS011;16815;51.100;6.516;2024-03-23T13:39:09;2.87;;;1.50;;
29958;SDS011;16815;51.100;6.516;2024-03-23T13:41:41;2.57;;;1.50;;
29958;SDS011;16815;51.100;6.516;2024-03-23T13:44:08;2.50;;;1.33;;
29958;SDS011;16815;51.100;6.516;2024-03-23T13:46:38;2.20;;;1.40;;
29958;SDS011;16815;51.100;6.516;2024-03-23T13:49:05;3.30;;;1.60;;
29958;SDS011;16815;51.100;6.516;2024-03-23T13:51:31;3.53;;;1.40;;
29958;SDS011;16815;51.100;6.516;2024-03-23T13:53:57;4.83;;;1.50;;
29958;SDS011;16815;51.100;6.516;2024-03-23T13:56:27;2.30;;;1.40;;
29958;SDS011;16815;51.100;6.516;2024-03-23T13:58:54;7.10;;;1.87;;
29958;SDS011;16815;51.100;6.516;2024-03-23T14:01:20;1.47;;;1.27;;
29958;SDS011;16815;51.100;6.516;2024-03-23T14:03:46;2.57;;;1.50;;
29958;SDS011;16815;51.100;6.516;2024-03-23T14:06:12;4.03;;;1.50;;
29958;SDS011;16815;51.100;6.516;2024-03-23T14:08:38;7.13;;;2.00;;
29958;SDS011;16815;51.100;6.516;2024-03-23T14:11:08;8.90;;;2.20;;
29958;SDS011;16815;51.100;6.516;2024-03-23T14:13:34;4.90;;;2.23;;
29958;SDS011;16815;51.100;6.516;2024-03-23T14:16:00;4.50;;;1.80;;
29958;SDS011;16815;51.100;6.516;2024-03-23T14:18:27;3.50;;;1.80;;
29958;SDS011;16815;51.100;6.516;2024-03-23T14:20:56;2.83;;;1.50;;
29958;SDS011;16815;51.100;6.516;2024-03-23T14:23:23;5.67;;;1.80;;
29958;SDS011;16815;51.100;6.516;2024-03-23T14:25:50;3.33;;;1.53;;
29958;SDS011;16815;51.100;6.516;2024-03-23T14:28:18;3.33;;;2.20;;
29958;SDS011;16815;51.100;6.516;2024-03-23T14:30:43;2.27;;;1.40;;
29958;SDS011;16815;51.100;6.516;2024-03-23T14:33:09;2.20;;;1.73;;
29958;SDS011;16815;51.100;6.516;2024-03-23T14:35:35;2.47;;;1.73;;
29958;SDS011;16815;51.100;6.516;2024-03-23T14:38:01;2.07;;;1.40;;
29958;SDS011;16815;51.100;6.516;2024-03-23T14:40:28;1.37;;;1.27;;
29958;SDS011;16815;51.100;6.516;2024-03-23T14:42:54;1.50;;;1.40;;
29958;SDS011;16815;51.100;6.516;2024-03-23T14:45:21;1.73;;;1.43;;
29958;SDS011;16815;51.100;6.516;2024-03-23T14:47:48;2.30;;;1.50;;
29958;SDS011;16815;51.100;6.516;2024-03-23T14:50:14;1.73;;;1.33;;
29958;SDS011;16815;51.100;6.516;2024-03-23T14:52:44;1.43;;;1.27;;
29958;SDS011;16815;51.100;6.516;2024-03-23T14:55:13;1.30;;;1.20;;
29958;SDS011;16815;51.100;6.516;2024-03-23T14:57:40;1.90;;;1.47;;
29958;SDS011;16815;51.100;6.516;2024-03-23T15:00:07;2.40;;;1.63;;
29958;SDS011;16815;51.100;6.516;2024-03-23T15:02:35;1.57;;;1.47;;
29958;SDS011;16815;51.100;6.516;2024-03-23T15:05:01;1.67;;;1.53;;
29958;SDS011;16815;51.100;6.516;2024-03-23T15:07:29;2.20;;;1.50;;
29958;SDS011;16815;51.100;6.516;2024-03-23T15:09:55;2.50;;;1.60;;
29958;SDS011;16815;51.100;6.516;2024-03-23T15:12:21;2.97;;;1.70;;
29958;SDS011;16815;51.100;6.516;2024-03-23T15:14:47;1.90;;;1.30;;
29958;SDS011;16815;51.100;6.516;2024-03-23T15:17:13;1.40;;;1.30;;
29958;SDS011;16815;51.100;6.516;2024-03-23T15:19:39;1.37;;;1.23;;
29958;SDS011;16815;51.100;6.516;2024-03-23T15:22:07;2.77;;;1.30;;
29958;SDS011;16815;51.100;6.516;2024-03-23T15:24:33;1.70;;;1.50;;
29958;SDS011;16815;51.100;6.516;2024-03-23T15:27:00;2.13;;;1.23;;
29958;SDS011;16815;51.100;6.516;2024-03-23T15:29:26;1.43;;;1.30;;
29958;SDS011;16815;51.100;6.516;2024-03-23T15:31:52;1.60;;;1.30;;
29958;SDS011;16815;51.100;6.516;2024-03-23T15:34:19;2.27;;;1.60;;
29958;SDS011;16815;51.100;6.516;2024-03-23T15:36:46;3.17;;;1.63;;
29958;SDS011;16815;51.100;6.516;2024-03-23T15:39:14;4.63;;;1.87;;
29958;SDS011;16815;51.100;6.516;2024-03-23T15:41:40;3.50;;;1.60;;
29958;SDS011;16815;51.100;6.516;2024-03-23T15:44:06;2.20;;;1.63;;
29958;SDS011;16815;51.100;6.516;2024-03-23T15:46:32;3.53;;;1.70;;